Terminal Aerodrome Forecast
Issued by NWS

Home | Current Version | Previous Version | Text Only | Print | Product List | Glossary On
Versions: 1 2 3 4 5 6 7 8 9 10 11 12 13 14 15 16 17 18 19
000
FTUS45 KMSO 221100
TAFSMN
TAF
KSMN 221125Z 2212/2312 17006KT P6SM FEW090
     FM222000 20010G18KT P6SM VCTS OVC090CB
     FM230000 28012KT P6SM VCSH BKN120
      AMD LTD TO CLD VIS AND WIND=

USA.gov is the U.S. government's official web portal to all federal, state and local government web resources and services.